sensor_id;sensor_type;location;lat;lon;timestamp;temperature;humidity
76607;DHT22;65498;50.916;4.698;2023-03-01T00:01:29;21.50;32.70
76607;DHT22;65498;50.916;4.698;2023-03-01T00:03:58;21.50;32.80
76607;DHT22;65498;50.916;4.698;2023-03-01T00:06:27;21.40;32.80
76607;DHT22;65498;50.916;4.698;2023-03-01T00:08:54;21.40;32.90
76607;DHT22;65498;50.916;4.698;2023-03-01T00:11:24;21.40;32.90
76607;DHT22;65498;50.916;4.698;2023-03-01T00:13:54;21.40;32.90
76607;DHT22;65498;50.916;4.698;2023-03-01T00:16:25;21.30;33.10
76607;DHT22;65498;50.916;4.698;2023-03-01T00:18:54;21.30;33.20
76607;DHT22;65498;50.916;4.698;2023-03-01T00:21:23;21.40;33.30
76607;DHT22;65498;50.916;4.698;2023-03-01T00:23:51;21.60;33.30
76607;DHT22;65498;50.916;4.698;2023-03-01T00:26:20;21.40;33.40
76607;DHT22;65498;50.916;4.698;2023-03-01T00:28:48;21.30;33.20
76607;DHT22;65498;50.916;4.698;2023-03-01T00:31:19;21.30;33.40
76607;DHT22;65498;50.916;4.698;2023-03-01T00:33:47;21.50;33.10
76607;DHT22;65498;50.916;4.698;2023-03-01T00:36:15;21.70;32.70
76607;DHT22;65498;50.916;4.698;2023-03-01T00:38:44;21.70;32.80
76607;DHT22;65498;50.916;4.698;2023-03-01T00:41:14;21.60;32.80
76607;DHT22;65498;50.916;4.698;2023-03-01T00:43:42;21.50;33.00
76607;DHT22;65498;50.916;4.698;2023-03-01T00:46:12;21.60;32.70
76607;DHT22;65498;50.916;4.698;2023-03-01T00:48:41;21.70;32.80
76607;DHT22;65498;50.916;4.698;2023-03-01T00:51:11;21.70;33.20
76607;DHT22;65498;50.916;4.698;2023-03-01T00:53:40;21.60;33.20
76607;DHT22;65498;50.916;4.698;2023-03-01T00:56:09;21.60;33.00
76607;DHT22;65498;50.916;4.698;2023-03-01T00:58:37;21.70;33.30
76607;DHT22;65498;50.916;4.698;2023-03-01T01:01:10;21.70;33.30
76607;DHT22;65498;50.916;4.698;2023-03-01T01:03:39;21.60;32.90
76607;DHT22;65498;50.916;4.698;2023-03-01T01:06:12;21.30;33.20
76607;DHT22;65498;50.916;4.698;2023-03-01T01:08:37;21.20;33.30
76607;DHT22;65498;50.916;4.698;2023-03-01T01:11:05;21.10;33.40
76607;DHT22;65498;50.916;4.698;2023-03-01T01:13:32;21.10;33.70
76607;DHT22;65498;50.916;4.698;2023-03-01T01:16:03;21.10;33.70
76607;DHT22;65498;50.916;4.698;2023-03-01T01:18:31;21.10;33.60
76607;DHT22;65498;50.916;4.698;2023-03-01T01:21:03;21.10;33.50
76607;DHT22;65498;50.916;4.698;2023-03-01T01:23:31;21.10;33.70
76607;DHT22;65498;50.916;4.698;2023-03-01T01:26:04;21.10;33.90
76607;DHT22;65498;50.916;4.698;2023-03-01T01:28:32;21.10;33.70
76607;DHT22;65498;50.916;4.698;2023-03-01T01:31:00;21.20;33.70
76607;DHT22;65498;50.916;4.698;2023-03-01T01:33:27;21.30;34.10
76607;DHT22;65498;50.916;4.698;2023-03-01T01:35:55;21.40;33.90
76607;DHT22;65498;50.916;4.698;2023-03-01T01:38:22;21.50;33.30
76607;DHT22;65498;50.916;4.698;2023-03-01T01:40:51;21.40;33.20
76607;DHT22;65498;50.916;4.698;2023-03-01T01:43:24;21.50;33.30
76607;DHT22;65498;50.916;4.698;2023-03-01T01:46:01;21.50;33.50
76607;DHT22;65498;50.916;4.698;2023-03-01T01:48:39;21.50;33.20
76607;DHT22;65498;50.916;4.698;2023-03-01T01:51:11;21.30;33.30
76607;DHT22;65498;50.916;4.698;2023-03-01T01:53:39;21.20;33.70
76607;DHT22;65498;50.916;4.698;2023-03-01T01:56:09;21.20;33.40
76607;DHT22;65498;50.916;4.698;2023-03-01T01:58:37;21.30;33.50
76607;DHT22;65498;50.916;4.698;2023-03-01T02:01:06;21.40;33.20
76607;DHT22;65498;50.916;4.698;2023-03-01T02:03:36;21.30;33.20
76607;DHT22;65498;50.916;4.698;2023-03-01T02:06:21;21.40;33.40
76607;DHT22;65498;50.916;4.698;2023-03-01T02:08:49;21.50;33.90
76607;DHT22;65498;50.916;4.698;2023-03-01T02:11:18;21.50;33.70
76607;DHT22;65498;50.916;4.698;2023-03-01T02:13:47;21.40;33.80
76607;DHT22;65498;50.916;4.698;2023-03-01T02:16:16;21.50;33.60
76607;DHT22;65498;50.916;4.698;2023-03-01T02:18:45;21.50;33.70
76607;DHT22;65498;50.916;4.698;2023-03-01T02:21:37;21.50;33.70
76607;DHT22;65498;50.916;4.698;2023-03-01T02:26:55;21.50;33.30
76607;DHT22;65498;50.916;4.698;2023-03-01T02:29:21;21.30;33.60
76607;DHT22;65498;50.916;4.698;2023-03-01T02:31:50;21.40;33.80
76607;DHT22;65498;50.916;4.698;2023-03-01T02:34:21;21.40;33.40
76607;DHT22;65498;50.916;4.698;2023-03-01T02:39:25;21.20;33.40
76607;DHT22;65498;50.916;4.698;2023-03-01T02:41:54;21.20;33.80
76607;DHT22;65498;50.916;4.698;2023-03-01T02:44:23;21.30;34.20
76607;DHT22;65498;50.916;4.698;2023-03-01T02:46:52;21.40;34.20
76607;DHT22;65498;50.916;4.698;2023-03-01T02:49:25;21.40;34.10
76607;DHT22;65498;50.916;4.698;2023-03-01T02:54:58;21.20;33.70
76607;DHT22;65498;50.916;4.698;2023-03-01T02:57:28;21.10;34.00
76607;DHT22;65498;50.916;4.698;2023-03-01T02:59:59;21.20;33.80
76607;DHT22;65498;50.916;4.698;2023-03-01T03:02:29;21.30;33.70
76607;DHT22;65498;50.916;4.698;2023-03-01T03:05:09;21.20;33.70
76607;DHT22;65498;50.916;4.698;2023-03-01T03:07:39;21.20;33.90
76607;DHT22;65498;50.916;4.698;2023-03-01T03:10:11;21.30;34.70
76607;DHT22;65498;50.916;4.698;2023-03-01T03:12:39;21.40;33.60
76607;DHT22;65498;50.916;4.698;2023-03-01T03:15:09;21.30;33.70
76607;DHT22;65498;50.916;4.698;2023-03-01T03:17:41;21.30;33.80
76607;DHT22;65498;50.916;4.698;2023-03-01T03:20:11;21.30;33.60
76607;DHT22;65498;50.916;4.698;2023-03-01T03:22:38;21.30;33.30
76607;DHT22;65498;50.916;4.698;2023-03-01T03:25:08;21.20;33.80
76607;DHT22;65498;50.916;4.698;2023-03-01T03:27:38;21.30;33.90
76607;DHT22;65498;50.916;4.698;2023-03-01T03:30:08;21.30;34.00
76607;DHT22;65498;50.916;4.698;2023-03-01T03:32:39;21.30;33.70
76607;DHT22;65498;50.916;4.698;2023-03-01T03:35:08;21.30;33.70
76607;DHT22;65498;50.916;4.698;2023-03-01T03:37:38;21.30;33.40
76607;DHT22;65498;50.916;4.698;2023-03-01T03:40:26;21.30;34.20
76607;DHT22;65498;50.916;4.698;2023-03-01T03:42:54;21.30;33.70
76607;DHT22;65498;50.916;4.698;2023-03-01T03:45:22;21.20;33.90
76607;DHT22;65498;50.916;4.698;2023-03-01T03:47:49;21.30;35.00
76607;DHT22;65498;50.916;4.698;2023-03-01T03:50:18;21.30;34.80
76607;DHT22;65498;50.916;4.698;2023-03-01T03:52:45;21.20;33.90
76607;DHT22;65498;50.916;4.698;2023-03-01T03:55:13;21.20;34.10
76607;DHT22;65498;50.916;4.698;2023-03-01T03:57:42;21.30;34.10
76607;DHT22;65498;50.916;4.698;2023-03-01T04:00:12;21.30;34.30
76607;DHT22;65498;50.916;4.698;2023-03-01T04:02:41;21.20;33.80
76607;DHT22;65498;50.916;4.698;2023-03-01T04:05:10;21.20;34.00
76607;DHT22;65498;50.916;4.698;2023-03-01T04:07:38;21.20;34.50
76607;DHT22;65498;50.916;4.698;2023-03-01T04:10:09;21.30;34.70
76607;DHT22;65498;50.916;4.698;2023-03-01T04:12:36;21.20;34.00
76607;DHT22;65498;50.916;4.698;2023-03-01T04:15:06;21.20;34.10
76607;DHT22;65498;50.916;4.698;2023-03-01T04:17:46;21.30;34.70
76607;DHT22;65498;50.916;4.698;2023-03-01T04:20:16;21.20;34.10
76607;DHT22;65498;50.916;4.698;2023-03-01T04:22:48;21.10;34.40
76607;DHT22;65498;50.916;4.698;2023-03-01T04:25:16;21.20;34.50
76607;DHT22;65498;50.916;4.698;2023-03-01T04:27:44;21.30;34.70
76607;DHT22;65498;50.916;4.698;2023-03-01T04:30:12;21.10;34.50
76607;DHT22;65498;50.916;4.698;2023-03-01T04:32:39;21.00;34.80
76607;DHT22;65498;50.916;4.698;2023-03-01T04:35:07;21.00;34.80
76607;DHT22;65498;50.916;4.698;2023-03-01T04:37:35;21.00;34.70
76607;DHT22;65498;50.916;4.698;2023-03-01T04:40:03;21.00;34.40
76607;DHT22;65498;50.916;4.698;2023-03-01T04:42:39;21.00;34.40
76607;DHT22;65498;50.916;4.698;2023-03-01T04:45:07;21.10;34.60
76607;DHT22;65498;50.916;4.698;2023-03-01T04:47:37;21.20;34.70
76607;DHT22;65498;50.916;4.698;2023-03-01T04:50:05;21.20;34.60
76607;DHT22;65498;50.916;4.698;2023-03-01T04:52:33;21.20;34.30
76607;DHT22;65498;50.916;4.698;2023-03-01T04:55:00;21.10;34.00
76607;DHT22;65498;50.916;4.698;2023-03-01T04:57:28;21.00;34.30
76607;DHT22;65498;50.916;4.698;2023-03-01T04:59:56;21.10;34.00
76607;DHT22;65498;50.916;4.698;2023-03-01T05:02:23;21.10;34.70
76607;DHT22;65498;50.916;4.698;2023-03-01T05:04:51;21.10;34.00
76607;DHT22;65498;50.916;4.698;2023-03-01T05:07:18;21.00;34.20
76607;DHT22;65498;50.916;4.698;2023-03-01T05:09:46;21.10;34.60
76607;DHT22;65498;50.916;4.698;2023-03-01T05:12:14;21.10;34.80
76607;DHT22;65498;50.916;4.698;2023-03-01T05:14:42;21.20;34.40
76607;DHT22;65498;50.916;4.698;2023-03-01T05:17:09;21.10;34.00
76607;DHT22;65498;50.916;4.698;2023-03-01T05:19:37;21.10;34.10
76607;DHT22;65498;50.916;4.698;2023-03-01T05:22:04;21.10;34.40
76607;DHT22;65498;50.916;4.698;2023-03-01T05:24:34;21.20;34.40
76607;DHT22;65498;50.916;4.698;2023-03-01T05:27:02;21.10;34.60
76607;DHT22;65498;50.916;4.698;2023-03-01T05:29:31;21.00;34.20
76607;DHT22;65498;50.916;4.698;2023-03-01T05:32:02;21.10;34.60
76607;DHT22;65498;50.916;4.698;2023-03-01T05:34:30;21.20;34.60
76607;DHT22;65498;50.916;4.698;2023-03-01T05:36:59;21.20;34.20
76607;DHT22;65498;50.916;4.698;2023-03-01T05:39:28;21.10;34.10
76607;DHT22;65498;50.916;4.698;2023-03-01T05:41:59;21.00;34.00
76607;DHT22;65498;50.916;4.698;2023-03-01T05:44:28;21.00;34.20
76607;DHT22;65498;50.916;4.698;2023-03-01T05:46:56;21.10;34.60
76607;DHT22;65498;50.916;4.698;2023-03-01T05:49:24;21.10;34.50
76607;DHT22;65498;50.916;4.698;2023-03-01T05:51:53;21.10;33.80
76607;DHT22;65498;50.916;4.698;2023-03-01T05:54:21;21.00;34.10
76607;DHT22;65498;50.916;4.698;2023-03-01T05:56:49;21.00;34.30
76607;DHT22;65498;50.916;4.698;2023-03-01T05:59:16;21.10;34.30
76607;DHT22;65498;50.916;4.698;2023-03-01T06:01:44;21.20;34.40
76607;DHT22;65498;50.916;4.698;2023-03-01T06:04:11;21.10;33.80
76607;DHT22;65498;50.916;4.698;2023-03-01T06:06:39;21.00;34.20
76607;DHT22;65498;50.916;4.698;2023-03-01T06:09:07;21.10;34.40
76607;DHT22;65498;50.916;4.698;2023-03-01T06:11:36;21.10;34.10
76607;DHT22;65498;50.916;4.698;2023-03-01T06:14:05;21.20;34.20
76607;DHT22;65498;50.916;4.698;2023-03-01T06:16:34;21.10;34.40
76607;DHT22;65498;50.916;4.698;2023-03-01T06:19:01;21.10;34.20
76607;DHT22;65498;50.916;4.698;2023-03-01T06:21:29;21.20;34.10
76607;DHT22;65498;50.916;4.698;2023-03-01T06:23:56;21.20;34.20
76607;DHT22;65498;50.916;4.698;2023-03-01T06:26:24;21.20;33.90
76607;DHT22;65498;50.916;4.698;2023-03-01T06:28:51;21.20;33.90
76607;DHT22;65498;50.916;4.698;2023-03-01T06:31:19;21.20;33.80
76607;DHT22;65498;50.916;4.698;2023-03-01T06:33:46;21.20;33.90
76607;DHT22;65498;50.916;4.698;2023-03-01T06:36:14;21.10;33.50
76607;DHT22;65498;50.916;4.698;2023-03-01T06:38:43;21.00;33.80
76607;DHT22;65498;50.916;4.698;2023-03-01T06:41:11;20.90;33.80
76607;DHT22;65498;50.916;4.698;2023-03-01T06:43:38;20.80;33.90
76607;DHT22;65498;50.916;4.698;2023-03-01T06:46:06;20.80;34.40
76607;DHT22;65498;50.916;4.698;2023-03-01T06:48:34;20.90;33.90
76607;DHT22;65498;50.916;4.698;2023-03-01T06:51:01;20.90;34.40
76607;DHT22;65498;50.916;4.698;2023-03-01T06:53:30;21.00;34.20
76607;DHT22;65498;50.916;4.698;2023-03-01T06:55:58;21.10;34.00
76607;DHT22;65498;50.916;4.698;2023-03-01T06:58:28;21.20;34.20
76607;DHT22;65498;50.916;4.698;2023-03-01T07:00:56;21.20;34.00
76607;DHT22;65498;50.916;4.698;2023-03-01T07:03:24;21.20;33.40
76607;DHT22;65498;50.916;4.698;2023-03-01T07:05:51;21.00;33.80
76607;DHT22;65498;50.916;4.698;2023-03-01T07:08:19;21.00;34.30
76607;DHT22;65498;50.916;4.698;2023-03-01T07:10:47;21.00;34.30
76607;DHT22;65498;50.916;4.698;2023-03-01T07:13:15;21.10;34.00
76607;DHT22;65498;50.916;4.698;2023-03-01T07:15:42;21.20;33.90
76607;DHT22;65498;50.916;4.698;2023-03-01T07:18:10;21.10;34.00
76607;DHT22;65498;50.916;4.698;2023-03-01T07:20:37;21.10;33.90
76607;DHT22;65498;50.916;4.698;2023-03-01T07:23:06;20.90;33.70
76607;DHT22;65498;50.916;4.698;2023-03-01T07:25:33;20.90;34.10
76607;DHT22;65498;50.916;4.698;2023-03-01T07:28:01;21.00;34.60
76607;DHT22;65498;50.916;4.698;2023-03-01T07:30:29;21.10;33.60
76607;DHT22;65498;50.916;4.698;2023-03-01T07:32:57;21.00;34.20
76607;DHT22;65498;50.916;4.698;2023-03-01T07:35:26;21.00;34.10
76607;DHT22;65498;50.916;4.698;2023-03-01T07:37:54;21.20;33.70
76607;DHT22;65498;50.916;4.698;2023-03-01T07:40:21;21.10;33.50
76607;DHT22;65498;50.916;4.698;2023-03-01T07:42:49;21.10;34.00
76607;DHT22;65498;50.916;4.698;2023-03-01T07:45:16;21.10;33.90
76607;DHT22;65498;50.916;4.698;2023-03-01T07:47:44;21.20;33.60
76607;DHT22;65498;50.916;4.698;2023-03-01T07:50:11;21.20;33.40
76607;DHT22;65498;50.916;4.698;2023-03-01T07:52:40;21.10;33.90
76607;DHT22;65498;50.916;4.698;2023-03-01T07:55:08;21.10;34.00
76607;DHT22;65498;50.916;4.698;2023-03-01T07:57:35;21.30;34.00
76607;DHT22;65498;50.916;4.698;2023-03-01T08:00:04;21.10;34.20
76607;DHT22;65498;50.916;4.698;2023-03-01T08:02:32;21.10;35.00
76607;DHT22;65498;50.916;4.698;2023-03-01T08:04:59;21.20;35.00
76607;DHT22;65498;50.916;4.698;2023-03-01T08:07:27;21.30;34.50
76607;DHT22;65498;50.916;4.698;2023-03-01T08:09:54;21.20;34.70
76607;DHT22;65498;50.916;4.698;2023-03-01T08:12:22;21.20;34.90
76607;DHT22;65498;50.916;4.698;2023-03-01T08:14:49;21.20;34.60
76607;DHT22;65498;50.916;4.698;2023-03-01T08:17:17;21.20;34.50
76607;DHT22;65498;50.916;4.698;2023-03-01T08:19:44;21.20;33.90
76607;DHT22;65498;50.916;4.698;2023-03-01T08:22:12;21.30;35.50
76607;DHT22;65498;50.916;4.698;2023-03-01T08:24:40;21.30;34.70
76607;DHT22;65498;50.916;4.698;2023-03-01T08:27:07;21.30;34.50
76607;DHT22;65498;50.916;4.698;2023-03-01T08:29:35;21.40;34.70
76607;DHT22;65498;50.916;4.698;2023-03-01T08:32:03;21.40;34.70
76607;DHT22;65498;50.916;4.698;2023-03-01T08:34:30;21.50;35.00
76607;DHT22;65498;50.916;4.698;2023-03-01T08:36:58;21.40;34.30
76607;DHT22;65498;50.916;4.698;2023-03-01T08:39:25;21.40;34.20
76607;DHT22;65498;50.916;4.698;2023-03-01T08:41:53;21.30;34.90
76607;DHT22;65498;50.916;4.698;2023-03-01T08:44:21;21.40;34.30
76607;DHT22;65498;50.916;4.698;2023-03-01T08:46:49;21.40;34.10
76607;DHT22;65498;50.916;4.698;2023-03-01T08:49:20;21.60;33.80
76607;DHT22;65498;50.916;4.698;2023-03-01T08:51:48;21.60;33.80
76607;DHT22;65498;50.916;4.698;2023-03-01T08:54:18;21.60;33.40
76607;DHT22;65498;50.916;4.698;2023-03-01T08:56:46;21.70;33.00
76607;DHT22;65498;50.916;4.698;2023-03-01T08:59:15;21.70;32.60
76607;DHT22;65498;50.916;4.698;2023-03-01T09:01:43;21.80;32.30
76607;DHT22;65498;50.916;4.698;2023-03-01T09:04:12;21.80;31.90
76607;DHT22;65498;50.916;4.698;2023-03-01T09:06:39;21.80;31.70
76607;DHT22;65498;50.916;4.698;2023-03-01T09:09:15;21.80;31.60
76607;DHT22;65498;50.916;4.698;2023-03-01T09:11:43;21.80;31.20
76607;DHT22;65498;50.916;4.698;2023-03-01T09:14:13;21.90;31.20
76607;DHT22;65498;50.916;4.698;2023-03-01T09:16:41;21.90;31.10
76607;DHT22;65498;50.916;4.698;2023-03-01T09:19:08;21.80;31.00
76607;DHT22;65498;50.916;4.698;2023-03-01T09:21:37;21.90;30.90
76607;DHT22;65498;50.916;4.698;2023-03-01T09:24:05;21.90;30.90
76607;DHT22;65498;50.916;4.698;2023-03-01T09:26:33;21.80;31.10
76607;DHT22;65498;50.916;4.698;2023-03-01T09:29:00;21.60;31.60
76607;DHT22;65498;50.916;4.698;2023-03-01T09:31:28;21.50;32.10
76607;DHT22;65498;50.916;4.698;2023-03-01T09:33:55;21.50;32.10
76607;DHT22;65498;50.916;4.698;2023-03-01T09:36:24;21.50;32.00
76607;DHT22;65498;50.916;4.698;2023-03-01T09:38:55;21.50;32.00
76607;DHT22;65498;50.916;4.698;2023-03-01T09:41:47;21.50;31.90
76607;DHT22;65498;50.916;4.698;2023-03-01T09:44:18;21.50;31.80
76607;DHT22;65498;50.916;4.698;2023-03-01T09:46:45;21.40;31.70
76607;DHT22;65498;50.916;4.698;2023-03-01T09:49:18;21.40;31.90
76607;DHT22;65498;50.916;4.698;2023-03-01T09:51:54;21.40;31.80
76607;DHT22;65498;50.916;4.698;2023-03-01T09:54:17;21.40;31.90
76607;DHT22;65498;50.916;4.698;2023-03-01T09:56:47;21.40;32.00
76607;DHT22;65498;50.916;4.698;2023-03-01T10:01:57;21.40;32.00
76607;DHT22;65498;50.916;4.698;2023-03-01T10:09:47;21.30;32.20
76607;DHT22;65498;50.916;4.698;2023-03-01T10:12:20;21.40;32.00
76607;DHT22;65498;50.916;4.698;2023-03-01T10:15:17;21.50;31.60
76607;DHT22;65498;50.916;4.698;2023-03-01T10:17:50;21.50;31.50
76607;DHT22;65498;50.916;4.698;2023-03-01T10:20:20;21.40;31.40
76607;DHT22;65498;50.916;4.698;2023-03-01T10:22:49;21.20;31.70
76607;DHT22;65498;50.916;4.698;2023-03-01T10:25:31;21.20;32.40
76607;DHT22;65498;50.916;4.698;2023-03-01T10:27:59;21.20;32.40
76607;DHT22;65498;50.916;4.698;2023-03-01T10:30:38;21.20;32.40
76607;DHT22;65498;50.916;4.698;2023-03-01T10:33:21;21.30;32.60
76607;DHT22;65498;50.916;4.698;2023-03-01T10:35:47;21.20;32.90
76607;DHT22;65498;50.916;4.698;2023-03-01T10:38:16;21.20;33.00
76607;DHT22;65498;50.916;4.698;2023-03-01T10:40:55;21.30;32.90
76607;DHT22;65498;50.916;4.698;2023-03-01T10:43:25;21.20;33.10
76607;DHT22;65498;50.916;4.698;2023-03-01T10:45:53;21.20;33.20
76607;DHT22;65498;50.916;4.698;2023-03-01T10:48:23;21.20;33.20
76607;DHT22;65498;50.916;4.698;2023-03-01T10:53:40;21.20;33.50
76607;DHT22;65498;50.916;4.698;2023-03-01T10:56:10;21.30;33.60
76607;DHT22;65498;50.916;4.698;2023-03-01T11:01:34;21.30;33.30
76607;DHT22;65498;50.916;4.698;2023-03-01T11:06:40;21.20;33.50
76607;DHT22;65498;50.916;4.698;2023-03-01T11:09:22;21.20;33.50
76607;DHT22;65498;50.916;4.698;2023-03-01T11:11:54;21.10;33.60
76607;DHT22;65498;50.916;4.698;2023-03-01T11:14:27;21.10;33.80
76607;DHT22;65498;50.916;4.698;2023-03-01T11:17:00;21.00;33.90
76607;DHT22;65498;50.916;4.698;2023-03-01T11:19:29;21.00;33.80
76607;DHT22;65498;50.916;4.698;2023-03-01T11:22:14;21.10;33.60
76607;DHT22;65498;50.916;4.698;2023-03-01T11:24:49;21.10;33.70
76607;DHT22;65498;50.916;4.698;2023-03-01T11:27:34;21.10;33.70
76607;DHT22;65498;50.916;4.698;2023-03-01T11:30:20;21.10;33.80
76607;DHT22;65498;50.916;4.698;2023-03-01T11:33:10;21.10;33.70
76607;DHT22;65498;50.916;4.698;2023-03-01T11:35:47;21.10;33.80
76607;DHT22;65498;50.916;4.698;2023-03-01T11:38:25;21.10;33.70
76607;DHT22;65498;50.916;4.698;2023-03-01T11:49:35;21.00;33.70
76607;DHT22;65498;50.916;4.698;2023-03-01T11:52:03;21.00;33.60
76607;DHT22;65498;50.916;4.698;2023-03-01T11:57:18;21.00;33.60
76607;DHT22;65498;50.916;4.698;2023-03-01T12:00:13;21.00;33.50
76607;DHT22;65498;50.916;4.698;2023-03-01T12:08:49;21.00;33.50
76607;DHT22;65498;50.916;4.698;2023-03-01T12:14:14;21.00;33.50
76607;DHT22;65498;50.916;4.698;2023-03-01T12:22:12;21.10;34.00
76607;DHT22;65498;50.916;4.698;2023-03-01T12:24:58;21.10;33.40
76607;DHT22;65498;50.916;4.698;2023-03-01T12:30:23;21.10;33.50
76607;DHT22;65498;50.916;4.698;2023-03-01T12:38:36;21.10;33.40
76607;DHT22;65498;50.916;4.698;2023-03-01T12:44:03;21.10;33.40
76607;DHT22;65498;50.916;4.698;2023-03-01T12:49:57;21.10;33.50
76607;DHT22;65498;50.916;4.698;2023-03-01T12:54:56;21.10;34.10
76607;DHT22;65498;50.916;4.698;2023-03-01T12:57:40;21.20;33.70
76607;DHT22;65498;50.916;4.698;2023-03-01T13:00:30;21.20;33.70
76607;DHT22;65498;50.916;4.698;2023-03-01T13:03:00;21.10;33.60
76607;DHT22;65498;50.916;4.698;2023-03-01T13:05:56;21.10;33.60
76607;DHT22;65498;50.916;4.698;2023-03-01T13:08:26;21.20;33.50
76607;DHT22;65498;50.916;4.698;2023-03-01T13:10:54;21.20;33.50
76607;DHT22;65498;50.916;4.698;2023-03-01T13:13:28;21.20;33.60
76607;DHT22;65498;50.916;4.698;2023-03-01T13:15:53;21.20;33.60
76607;DHT22;65498;50.916;4.698;2023-03-01T13:18:28;21.20;33.60
76607;DHT22;65498;50.916;4.698;2023-03-01T13:20:58;21.20;33.70
76607;DHT22;65498;50.916;4.698;2023-03-01T13:23:29;21.20;33.70
76607;DHT22;65498;50.916;4.698;2023-03-01T13:26:15;21.20;33.60
76607;DHT22;65498;50.916;4.698;2023-03-01T13:28:49;21.20;33.70
76607;DHT22;65498;50.916;4.698;2023-03-01T13:33:55;21.20;33.70
76607;DHT22;65498;50.916;4.698;2023-03-01T13:39:03;21.30;33.50
76607;DHT22;65498;50.916;4.698;2023-03-01T13:44:37;21.30;34.30
76607;DHT22;65498;50.916;4.698;2023-03-01T13:50:02;21.30;33.60
76607;DHT22;65498;50.916;4.698;2023-03-01T13:52:38;21.30;33.60
76607;DHT22;65498;50.916;4.698;2023-03-01T13:57:47;21.30;33.70
76607;DHT22;65498;50.916;4.698;2023-03-01T14:00:33;21.30;33.60
76607;DHT22;65498;50.916;4.698;2023-03-01T14:03:18;21.30;33.60
76607;DHT22;65498;50.916;4.698;2023-03-01T14:06:16;21.40;33.40
76607;DHT22;65498;50.916;4.698;2023-03-01T14:08:48;21.40;33.40
76607;DHT22;65498;50.916;4.698;2023-03-01T14:19:29;21.60;33.20
76607;DHT22;65498;50.916;4.698;2023-03-01T14:24:31;21.60;32.90
76607;DHT22;65498;50.916;4.698;2023-03-01T14:27:01;21.60;33.20
76607;DHT22;65498;50.916;4.698;2023-03-01T14:29:37;21.70;33.20
76607;DHT22;65498;50.916;4.698;2023-03-01T14:32:17;21.70;33.10
76607;DHT22;65498;50.916;4.698;2023-03-01T14:34:46;21.80;33.60
76607;DHT22;65498;50.916;4.698;2023-03-01T14:37:26;21.70;33.40
76607;DHT22;65498;50.916;4.698;2023-03-01T14:39:55;21.70;33.60
76607;DHT22;65498;50.916;4.698;2023-03-01T14:42:24;21.80;33.40
76607;DHT22;65498;50.916;4.698;2023-03-01T14:44:55;21.80;33.70
76607;DHT22;65498;50.916;4.698;2023-03-01T14:47:32;21.90;33.30
76607;DHT22;65498;50.916;4.698;2023-03-01T14:50:14;21.80;33.30
76607;DHT22;65498;50.916;4.698;2023-03-01T14:52:39;21.80;33.40
76607;DHT22;65498;50.916;4.698;2023-03-01T14:55:18;21.90;33.30
76607;DHT22;65498;50.916;4.698;2023-03-01T14:57:48;21.90;33.30
76607;DHT22;65498;50.916;4.698;2023-03-01T15:00:27;21.90;33.40
76607;DHT22;65498;50.916;4.698;2023-03-01T15:02:58;21.90;33.30
76607;DHT22;65498;50.916;4.698;2023-03-01T15:05:29;21.90;33.40
76607;DHT22;65498;50.916;4.698;2023-03-01T15:08:02;21.90;33.70
76607;DHT22;65498;50.916;4.698;2023-03-01T15:10:35;21.90;33.40
76607;DHT22;65498;50.916;4.698;2023-03-01T15:13:24;22.00;33.50
76607;DHT22;65498;50.916;4.698;2023-03-01T15:15:44;22.00;33.40
76607;DHT22;65498;50.916;4.698;2023-03-01T15:18:30;22.00;33.40
76607;DHT22;65498;50.916;4.698;2023-03-01T15:20:51;22.00;33.60
76607;DHT22;65498;50.916;4.698;2023-03-01T15:23:22;22.00;33.60
76607;DHT22;65498;50.916;4.698;2023-03-01T15:25:51;22.00;33.50
76607;DHT22;65498;50.916;4.698;2023-03-01T15:28:20;22.00;33.50
76607;DHT22;65498;50.916;4.698;2023-03-01T15:30:54;22.10;33.50
76607;DHT22;65498;50.916;4.698;2023-03-01T15:33:34;22.10;33.70
76607;DHT22;65498;50.916;4.698;2023-03-01T15:36:50;22.00;33.60
76607;DHT22;65498;50.916;4.698;2023-03-01T15:41:25;22.10;33.50
76607;DHT22;65498;50.916;4.698;2023-03-01T15:43:54;22.00;33.60
76607;DHT22;65498;50.916;4.698;2023-03-01T15:46:25;22.00;33.60
76607;DHT22;65498;50.916;4.698;2023-03-01T15:49:05;22.00;33.70
76607;DHT22;65498;50.916;4.698;2023-03-01T15:51:37;22.00;34.70
76607;DHT22;65498;50.916;4.698;2023-03-01T15:54:08;21.90;33.80
76607;DHT22;65498;50.916;4.698;2023-03-01T15:56:35;22.00;33.70
76607;DHT22;65498;50.916;4.698;2023-03-01T15:59:03;22.00;33.80
76607;DHT22;65498;50.916;4.698;2023-03-01T16:01:31;22.00;33.80
76607;DHT22;65498;50.916;4.698;2023-03-01T16:04:00;22.00;33.90
76607;DHT22;65498;50.916;4.698;2023-03-01T16:06:28;22.00;33.90
76607;DHT22;65498;50.916;4.698;2023-03-01T16:08:55;22.00;33.80
76607;DHT22;65498;50.916;4.698;2023-03-01T16:11:23;22.10;33.80
76607;DHT22;65498;50.916;4.698;2023-03-01T16:13:51;22.00;33.80
76607;DHT22;65498;50.916;4.698;2023-03-01T16:16:18;21.90;33.90
76607;DHT22;65498;50.916;4.698;2023-03-01T16:18:46;22.00;33.90
76607;DHT22;65498;50.916;4.698;2023-03-01T16:21:18;22.00;34.00
76607;DHT22;65498;50.916;4.698;2023-03-01T16:23:45;22.00;34.10
76607;DHT22;65498;50.916;4.698;2023-03-01T16:26:13;22.00;33.80
76607;DHT22;65498;50.916;4.698;2023-03-01T16:28:41;22.00;33.80
76607;DHT22;65498;50.916;4.698;2023-03-01T16:31:10;22.00;33.90
76607;DHT22;65498;50.916;4.698;2023-03-01T16:33:37;21.90;33.90
76607;DHT22;65498;50.916;4.698;2023-03-01T16:36:10;21.90;33.80
76607;DHT22;65498;50.916;4.698;2023-03-01T16:38:39;21.90;33.70
76607;DHT22;65498;50.916;4.698;2023-03-01T16:41:11;21.90;33.70
76607;DHT22;65498;50.916;4.698;2023-03-01T16:43:39;21.90;33.70
76607;DHT22;65498;50.916;4.698;2023-03-01T16:46:09;21.80;33.60
76607;DHT22;65498;50.916;4.698;2023-03-01T16:48:37;21.90;33.50
76607;DHT22;65498;50.916;4.698;2023-03-01T16:51:06;22.00;33.50
76607;DHT22;65498;50.916;4.698;2023-03-01T16:53:35;22.00;33.00
76607;DHT22;65498;50.916;4.698;2023-03-01T16:56:04;21.90;33.30
76607;DHT22;65498;50.916;4.698;2023-03-01T16:58:33;21.90;33.20
76607;DHT22;65498;50.916;4.698;2023-03-01T17:01:10;21.90;33.10
76607;DHT22;65498;50.916;4.698;2023-03-01T17:03:34;21.90;32.90
76607;DHT22;65498;50.916;4.698;2023-03-01T17:06:03;21.80;32.90
76607;DHT22;65498;50.916;4.698;2023-03-01T17:08:32;21.90;32.60
76607;DHT22;65498;50.916;4.698;2023-03-01T17:11:07;21.90;32.70
76607;DHT22;65498;50.916;4.698;2023-03-01T17:13:35;21.90;32.50
76607;DHT22;65498;50.916;4.698;2023-03-01T17:16:08;21.90;32.70
76607;DHT22;65498;50.916;4.698;2023-03-01T17:18:36;21.90;32.80
76607;DHT22;65498;50.916;4.698;2023-03-01T17:21:05;22.00;32.40
76607;DHT22;65498;50.916;4.698;2023-03-01T17:23:35;22.00;32.00
76607;DHT22;65498;50.916;4.698;2023-03-01T17:26:04;22.00;32.00